createdAt,value
2022-11-24T00:01:23.481Z,100752.22
2022-11-24T00:03:58.042Z,100749.28
2022-11-24T00:06:25.864Z,100740.81
2022-11-24T00:08:53.542Z,100745.47
2022-11-24T00:11:28.025Z,100745.00
2022-11-24T00:13:55.875Z,100745.88
2022-11-24T00:16:30.229Z,100751.16
2022-11-24T00:18:59.586Z,100755.84
2022-11-24T00:21:28.018Z,100754.56
2022-11-24T00:23:55.034Z,100756.47
2022-11-24T00:26:27.568Z,100744.53
2022-11-24T00:28:56.673Z,100747.91
2022-11-24T00:31:43.738Z,100767.53
2022-11-24T00:34:13.364Z,100766.31
2022-11-24T00:36:41.197Z,100769.66
2022-11-24T00:39:12.437Z,100773.97
2022-11-24T00:41:39.786Z,100768.53
2022-11-24T00:44:06.574Z,100769.47
2022-11-24T00:46:34.304Z,100774.47
2022-11-24T00:49:02.542Z,100780.13
2022-11-24T00:51:32.509Z,100788.81
2022-11-24T00:54:00.979Z,100796.50
2022-11-24T00:56:29.763Z,100803.44
2022-11-24T00:58:56.671Z,100817.28
2022-11-24T01:01:26.354Z,100818.84
2022-11-24T01:03:55.447Z,100826.59
2022-11-24T01:06:27.120Z,100831.53
2022-11-24T01:08:55.830Z,100841.25
2022-11-24T01:11:24.115Z,100839.16
2022-11-24T01:13:58.001Z,100834.06
2022-11-24T01:16:33.424Z,100850.00
2022-11-24T01:19:01.095Z,100846.19
2022-11-24T01:21:27.874Z,100846.84
2022-11-24T01:23:54.633Z,100850.34
2022-11-24T01:26:22.579Z,100862.34
2022-11-24T01:28:56.699Z,100866.81
2022-11-24T01:31:24.758Z,100874.97
2022-11-24T01:33:51.808Z,100875.44
2022-11-24T01:36:18.682Z,100875.81
2022-11-24T01:38:46.264Z,100872.69
2022-11-24T01:41:19.288Z,100873.38
2022-11-24T01:43:47.039Z,100875.38
2022-11-24T01:46:22.786Z,100871.59
2022-11-24T01:49:12.137Z,100886.91
2022-11-24T01:51:45.653Z,100896.44
2022-11-24T01:54:18.778Z,100900.91
2022-11-24T01:56:48.773Z,100903.38
2022-11-24T01:59:17.701Z,100900.09
2022-11-24T02:01:44.956Z,100900.47
2022-11-24T02:04:14.894Z,100903.34
2022-11-24T02:06:45.012Z,100908.78
2022-11-24T02:09:19.800Z,100918.00
2022-11-24T02:11:47.372Z,100925.59
2022-11-24T02:14:18.139Z,100928.69
2022-11-24T02:16:49.350Z,100926.97
2022-11-24T02:19:32.549Z,100938.09
2022-11-24T02:22:00.309Z,100931.25
2022-11-24T02:25:16.041Z,100937.09
2022-11-24T02:27:49.384Z,100935.09
2022-11-24T02:30:19.269Z,100938.31
2022-11-24T02:32:45.953Z,100935.91
2022-11-24T02:35:14.848Z,100930.84
2022-11-24T02:37:41.550Z,100925.59
2022-11-24T02:40:08.984Z,100927.91
2022-11-24T02:42:41.638Z,100923.72
2022-11-24T02:45:10.408Z,100917.84
2022-11-24T02:47:37.101Z,100904.28
2022-11-24T02:50:04.415Z,100903.25
2022-11-24T02:52:31.187Z,100910.72
2022-11-24T02:54:58.068Z,100912.25
2022-11-24T02:57:24.765Z,100912.53
2022-11-24T02:59:51.514Z,100912.94
2022-11-24T03:02:18.309Z,100909.00
2022-11-24T03:04:45.206Z,100903.13
2022-11-24T03:07:11.977Z,100899.06
2022-11-24T03:09:38.729Z,100899.97
2022-11-24T03:12:05.592Z,100895.81
2022-11-24T03:14:32.783Z,100896.03
2022-11-24T03:16:59.888Z,100906.31
2022-11-24T03:19:26.650Z,100893.63
2022-11-24T03:21:53.554Z,100890.03
2022-11-24T03:24:20.670Z,100891.69
2022-11-24T03:26:47.371Z,100895.72
2022-11-24T03:29:14.230Z,100898.44
2022-11-24T03:31:41.035Z,100887.38
2022-11-24T03:34:08.006Z,100880.94
2022-11-24T03:36:34.754Z,100891.84
2022-11-24T03:39:01.604Z,100900.44
2022-11-24T03:41:28.336Z,100896.91
2022-11-24T03:43:55.064Z,100891.22
2022-11-24T03:46:21.864Z,100890.25
2022-11-24T03:48:48.858Z,100907.69
2022-11-24T03:51:15.631Z,100906.00
2022-11-24T03:53:42.468Z,100918.72
2022-11-24T03:56:09.484Z,100917.78
2022-11-24T03:58:36.549Z,100927.03
2022-11-24T04:01:03.662Z,100929.34
2022-11-24T04:03:30.514Z,100937.75
2022-11-24T04:05:57.382Z,100951.66
2022-11-24T04:08:24.821Z,100957.34
2022-11-24T04:10:53.760Z,100965.72
2022-11-24T04:13:24.171Z,100976.94
2022-11-24T04:15:51.445Z,100990.53
2022-11-24T04:18:18.968Z,101004.63
2022-11-24T04:20:46.067Z,100998.91
2022-11-24T04:23:12.783Z,101006.22
2022-11-24T04:25:41.505Z,101021.16
2022-11-24T04:28:08.822Z,101028.59
2022-11-24T04:30:36.324Z,101025.00
2022-11-24T04:33:03.084Z,101031.94
2022-11-24T04:35:29.886Z,101037.75
2022-11-24T04:37:56.680Z,101048.56
2022-11-24T04:40:23.438Z,101063.69
2022-11-24T04:42:56.444Z,101064.56
2022-11-24T04:45:24.200Z,101071.63
2022-11-24T04:47:51.416Z,101067.38
2022-11-24T04:50:18.490Z,101075.94
2022-11-24T04:52:45.492Z,101068.06
2022-11-24T04:55:12.331Z,101067.22
2022-11-24T04:57:39.429Z,101066.78
2022-11-24T05:00:07.155Z,101083.41
2022-11-24T05:02:33.940Z,101093.63
2022-11-24T05:05:00.724Z,101089.72
2022-11-24T05:07:27.855Z,101094.34
2022-11-24T05:10:13.138Z,101098.28
2022-11-24T05:12:40.095Z,101101.34
2022-11-24T05:15:07.654Z,101100.13
2022-11-24T05:17:37.267Z,101101.50
2022-11-24T05:20:06.136Z,101099.59
2022-11-24T05:22:33.055Z,101095.81
2022-11-24T05:24:59.883Z,101104.47
2022-11-24T05:27:26.640Z,101111.28
2022-11-24T05:29:53.527Z,101108.28
2022-11-24T05:32:20.745Z,101111.94
2022-11-24T05:34:47.976Z,101110.25
2022-11-24T05:37:14.725Z,101114.88
2022-11-24T05:39:41.470Z,101110.72
2022-11-24T05:42:27.075Z,101122.22
2022-11-24T05:44:54.252Z,101129.75
2022-11-24T05:47:21.579Z,101128.22
2022-11-24T05:49:48.549Z,101124.31
2022-11-24T05:52:16.150Z,101127.28
2022-11-24T05:54:42.970Z,101129.00
2022-11-24T05:57:09.767Z,101132.41
2022-11-24T05:59:36.579Z,101126.59
2022-11-24T06:02:03.559Z,101136.38
2022-11-24T06:04:30.487Z,101136.78
2022-11-24T06:06:57.245Z,101145.78
2022-11-24T06:09:24.133Z,101153.69
2022-11-24T06:11:52.905Z,101150.47
2022-11-24T06:14:19.770Z,101154.41
2022-11-24T06:16:47.383Z,101149.09
2022-11-24T06:19:14.308Z,101157.09
2022-11-24T06:21:41.133Z,101162.56
2022-11-24T06:24:08.286Z,101168.53
2022-11-24T06:26:35.044Z,101178.84
2022-11-24T06:29:01.999Z,101189.81
2022-11-24T06:31:28.837Z,101185.22
2022-11-24T06:33:55.579Z,101183.34
2022-11-24T06:36:22.899Z,101195.97
2022-11-24T06:38:49.654Z,101201.19
2022-11-24T06:41:16.736Z,101208.19
2022-11-24T06:43:44.151Z,101216.09
2022-11-24T06:46:11.813Z,101206.38
2022-11-24T06:48:38.740Z,101206.22
2022-11-24T06:51:10.489Z,101224.00
2022-11-24T06:53:38.613Z,101231.06
2022-11-24T06:56:13.717Z,101240.31
2022-11-24T06:58:44.459Z,101248.19
2022-11-24T07:01:16.147Z,101253.56
2022-11-24T07:03:43.053Z,101256.44
2022-11-24T07:06:09.972Z,101260.31
2022-11-24T07:08:37.066Z,101265.88
2022-11-24T07:11:09.035Z,101271.78
2022-11-24T07:13:36.266Z,101278.44
2022-11-24T07:16:19.624Z,101276.72
2022-11-24T07:18:48.198Z,101278.31
2022-11-24T07:21:15.720Z,101289.78
2022-11-24T07:23:42.972Z,101295.50
2022-11-24T07:26:10.576Z,101309.63
2022-11-24T07:28:38.100Z,101307.94
2022-11-24T07:31:09.988Z,101329.81
2022-11-24T07:33:37.341Z,101328.78
2022-11-24T07:36:06.593Z,101330.47
2022-11-24T07:38:33.928Z,101326.69
2022-11-24T07:41:06.523Z,101339.19
2022-11-24T07:43:34.628Z,101345.13
2022-11-24T07:46:01.930Z,101340.06
2022-11-24T07:48:28.857Z,101340.34
2022-11-24T07:50:56.438Z,101343.25
2022-11-24T07:53:23.534Z,101342.16
2022-11-24T07:56:00.384Z,101338.50
2022-11-24T07:58:32.945Z,101343.22
2022-11-24T08:01:00.973Z,101347.03
2022-11-24T08:03:27.976Z,101351.41
2022-11-24T08:06:22.732Z,101355.56
2022-11-24T08:08:49.479Z,101350.81
2022-11-24T08:11:18.195Z,101365.69
2022-11-24T08:13:45.178Z,101367.69
2022-11-24T08:16:15.365Z,101371.44
2022-11-24T08:18:43.472Z,101372.72
2022-11-24T08:21:13.450Z,101363.31
2022-11-24T08:23:40.505Z,101368.47
2022-11-24T08:26:10.964Z,101361.88
2022-11-24T08:28:38.303Z,101368.00
2022-11-24T08:31:10.998Z,101363.84
2022-11-24T08:33:38.570Z,101363.38
2022-11-24T08:36:16.580Z,101355.91
2022-11-24T08:38:44.705Z,101348.25
2022-11-24T08:41:14.360Z,101344.59
2022-11-24T08:43:41.499Z,101353.66
2022-11-24T08:46:11.503Z,101360.69
2022-11-24T08:48:38.708Z,101367.69
2022-11-24T08:51:14.721Z,101359.28
2022-11-24T08:53:42.434Z,101362.84
2022-11-24T08:56:10.881Z,101357.44
2022-11-24T08:58:38.468Z,101356.66
2022-11-24T09:01:11.962Z,101362.91
2022-11-24T09:03:43.368Z,101365.59
2022-11-24T09:06:11.834Z,101364.94
2022-11-24T09:08:38.976Z,101368.94
2022-11-24T09:11:09.477Z,101372.44
2022-11-24T09:13:37.497Z,101380.84
2022-11-24T09:16:05.608Z,101386.69
2022-11-24T09:18:32.915Z,101381.53
2022-11-24T09:21:25.080Z,101383.16
2022-11-24T09:23:54.096Z,101382.97
2022-11-24T09:26:26.766Z,101378.16
2022-11-24T09:28:55.117Z,101375.06
2022-11-24T09:31:24.734Z,101390.13
2022-11-24T09:33:52.733Z,101389.31
2022-11-24T09:36:20.904Z,101395.97
2022-11-24T09:38:48.463Z,101400.56
2022-11-24T09:41:17.927Z,101404.44
2022-11-24T09:44:06.387Z,101406.38
2022-11-24T09:46:41.297Z,101415.38
2022-11-24T09:49:16.666Z,101431.31
2022-11-24T09:51:48.405Z,101432.78
2022-11-24T09:54:22.282Z,101434.41
2022-11-24T09:56:51.289Z,101431.81
2022-11-24T09:59:25.239Z,101436.00
2022-11-24T10:01:52.595Z,101431.94
2022-11-24T10:04:27.256Z,101441.50
2022-11-24T10:07:22.289Z,101446.69
2022-11-24T10:10:01.693Z,101440.13
2022-11-24T10:13:02.583Z,101442.88
2022-11-24T10:16:36.236Z,101430.19
2022-11-24T10:19:30.459Z,101427.16
2022-11-24T10:22:36.989Z,101424.69
2022-11-24T10:25:13.799Z,101431.44
2022-11-24T10:27:45.404Z,101417.41
2022-11-24T10:30:21.557Z,101432.34
2022-11-24T10:33:01.405Z,101423.28
2022-11-24T10:35:37.623Z,101426.81
2022-11-24T10:38:32.101Z,101421.78
2022-11-24T10:41:14.624Z,101429.00
2022-11-24T10:43:42.470Z,101422.22
2022-11-24T10:46:15.931Z,101419.06
2022-11-24T10:48:58.009Z,101427.63
2022-11-24T10:51:31.357Z,101430.84
2022-11-24T10:54:19.475Z,101423.44
2022-11-24T10:56:48.001Z,101437.00
2022-11-24T10:59:34.667Z,101427.22
2022-11-24T11:02:02.487Z,101424.50
2022-11-24T11:04:34.925Z,101425.25
2022-11-24T11:07:19.105Z,101418.78
2022-11-24T11:09:47.627Z,101409.09
2022-11-24T11:12:43.484Z,101415.94
2022-11-24T11:15:32.510Z,101407.44
2022-11-24T11:18:01.282Z,101414.81
2022-11-24T11:20:31.909Z,101415.84
2022-11-24T11:23:03.772Z,101427.78
2022-11-24T11:25:36.015Z,101420.19
2022-11-24T11:28:25.129Z,101422.72
2022-11-24T11:31:17.902Z,101410.91
2022-11-24T11:34:03.374Z,101419.72
2022-11-24T11:36:33.108Z,101416.00
2022-11-24T11:39:00.753Z,101419.03
2022-11-24T11:41:33.885Z,101421.44
2022-11-24T11:44:46.494Z,101429.06
2022-11-24T11:47:23.134Z,101431.44
2022-11-24T11:49:50.451Z,101430.91
2022-11-24T11:52:44.394Z,101420.47
2022-11-24T11:55:25.995Z,101432.72
2022-11-24T11:58:33.928Z,101419.25
2022-11-24T12:01:22.189Z,101423.00
2022-11-24T12:04:13.955Z,101410.59
2022-11-24T12:06:55.175Z,101416.47
2022-11-24T12:09:46.594Z,101423.91
2022-11-24T12:12:13.405Z,101424.56
2022-11-24T12:15:07.298Z,101423.66
2022-11-24T12:18:02.672Z,101422.25
2022-11-24T12:21:25.969Z,101411.03
2022-11-24T12:24:12.167Z,101419.09
2022-11-24T12:26:51.092Z,101422.59
2022-11-24T12:29:50.204Z,101421.91
2022-11-24T12:32:25.925Z,101417.13
2022-11-24T12:35:03.749Z,101412.59
2022-11-24T12:37:45.598Z,101414.34
2022-11-24T12:40:33.960Z,101402.28
2022-11-24T12:43:23.085Z,101410.28
2022-11-24T12:46:19.947Z,101400.00
2022-11-24T12:49:08.388Z,101398.44
2022-11-24T12:51:49.186Z,101400.56
2022-11-24T12:54:19.653Z,101389.84
2022-11-24T12:57:02.384Z,101391.91
2022-11-24T13:00:20.288Z,101392.78
2022-11-24T13:03:29.782Z,101392.00
2022-11-24T13:06:11.586Z,101398.78
2022-11-24T13:08:39.124Z,101397.84
2022-11-24T13:11:20.957Z,101410.63
2022-11-24T13:13:59.673Z,101407.94
2022-11-24T13:17:05.724Z,101398.38
2022-11-24T13:19:17.094Z,101418.09
2022-11-24T13:21:45.549Z,101407.84
2022-11-24T13:24:19.393Z,101413.75
2022-11-24T13:27:16.184Z,101416.06
2022-11-24T13:29:46.513Z,101414.19
2022-11-24T13:32:14.739Z,101408.03
2022-11-24T13:34:42.814Z,101404.66
2022-11-24T13:37:34.845Z,101415.91
2022-11-24T13:40:11.732Z,101410.13
2022-11-24T13:43:02.247Z,101413.69
2022-11-24T13:45:41.682Z,101419.53
2022-11-24T13:48:21.397Z,101418.91
2022-11-24T13:50:54.185Z,101419.72
2022-11-24T13:53:49.079Z,101429.03
2022-11-24T13:56:15.832Z,101435.97
2022-11-24T13:58:45.093Z,101432.94
2022-11-24T14:01:14.942Z,101431.06
2022-11-24T14:03:47.522Z,101435.22
2022-11-24T14:06:35.672Z,101438.50
2022-11-24T14:09:19.703Z,101440.03
2022-11-24T14:11:58.804Z,101430.50
2022-11-24T14:14:26.105Z,101439.69
2022-11-24T14:17:16.337Z,101434.38
2022-11-24T14:19:45.723Z,101429.28
2022-11-24T14:22:31.830Z,101421.44
2022-11-24T14:25:00.747Z,101429.22
2022-11-24T14:27:46.105Z,101428.22
2022-11-24T14:30:13.724Z,101424.94
2022-11-24T14:32:42.245Z,101434.50
2022-11-24T14:35:27.270Z,101428.53
2022-11-24T14:37:54.500Z,101431.97
2022-11-24T14:40:49.041Z,101445.88
2022-11-24T14:43:18.985Z,101438.09
2022-11-24T14:46:04.442Z,101439.88
2022-11-24T14:48:39.703Z,101447.41
2022-11-24T14:51:25.097Z,101457.53
2022-11-24T14:53:59.419Z,101458.22
2022-11-24T14:56:30.138Z,101457.16
2022-11-24T14:58:58.319Z,101463.78
2022-11-24T15:01:28.043Z,101473.81
2022-11-24T15:05:01.516Z,101460.56
2022-11-24T15:07:20.461Z,101466.41
2022-11-24T15:09:47.269Z,101465.44
2022-11-24T15:12:37.850Z,101461.00
2022-11-24T15:15:13.668Z,101465.97
2022-11-24T15:18:07.074Z,101464.97
2022-11-24T15:20:37.764Z,101469.97
2022-11-24T15:23:23.095Z,101472.44
2022-11-24T15:25:51.896Z,101468.03
2022-11-24T15:28:19.615Z,101470.53
2022-11-24T15:30:46.537Z,101474.66
2022-11-24T15:33:16.013Z,101486.56
2022-11-24T15:35:42.986Z,101485.56
2022-11-24T15:38:10.051Z,101482.78
2022-11-24T15:40:41.041Z,101491.25
2022-11-24T15:43:34.146Z,101492.66
2022-11-24T15:46:02.676Z,101497.63
2022-11-24T15:48:30.083Z,101500.88
2022-11-24T15:50:58.319Z,101500.63
2022-11-24T15:53:36.191Z,101486.69
2022-11-24T15:56:06.091Z,101484.88
2022-11-24T15:58:32.909Z,101487.28
2022-11-24T16:00:59.900Z,101494.91
2022-11-24T16:06:23.781Z,101493.91
2022-11-24T16:08:52.240Z,101497.28
2022-11-24T16:11:19.069Z,101491.13
2022-11-24T16:13:51.923Z,101498.69
2022-11-24T16:16:20.507Z,101500.13
2022-11-24T16:18:47.353Z,101497.06
2022-11-24T16:21:14.476Z,101504.50
2022-11-24T16:23:41.391Z,101513.91
2022-11-24T16:26:08.205Z,101525.03
2022-11-24T16:28:36.055Z,101536.00
2022-11-24T16:31:02.944Z,101531.06
2022-11-24T16:33:30.331Z,101530.69
2022-11-24T16:35:57.575Z,101530.50
2022-11-24T16:38:24.726Z,101532.88
2022-11-24T16:40:53.114Z,101531.94
2022-11-24T16:43:20.093Z,101530.16
2022-11-24T16:45:51.343Z,101527.41
2022-11-24T16:48:18.107Z,101540.22
2022-11-24T16:50:44.908Z,101546.72
2022-11-24T16:53:11.832Z,101551.31
2022-11-24T16:55:38.683Z,101555.13
2022-11-24T16:58:05.564Z,101559.78
2022-11-24T17:00:32.436Z,101571.38
2022-11-24T17:02:59.327Z,101573.81
2022-11-24T17:05:26.064Z,101580.47
2022-11-24T17:07:52.976Z,101586.34
2022-11-24T17:10:19.949Z,101592.19
2022-11-24T17:12:47.412Z,101598.81
2022-11-24T17:15:32.755Z,101605.50
2022-11-24T17:18:23.454Z,101600.22
2022-11-24T17:20:48.254Z,101608.09
2022-11-24T17:23:15.709Z,101612.47
2022-11-24T17:25:42.562Z,101616.94
2022-11-24T17:28:09.310Z,101626.19
2022-11-24T17:30:37.829Z,101631.22
2022-11-24T17:33:04.787Z,101631.09
2022-11-24T17:35:33.986Z,101639.56
2022-11-24T17:38:01.395Z,101635.47
2022-11-24T17:40:29.664Z,101641.66
2022-11-24T17:43:00.528Z,101639.75
2022-11-24T17:45:28.735Z,101643.19
2022-11-24T17:47:56.266Z,101641.56
2022-11-24T17:50:26.063Z,101634.56
2022-11-24T17:52:54.219Z,101644.56
2022-11-24T17:55:22.521Z,101641.91
2022-11-24T17:57:50.064Z,101638.31
2022-11-24T18:00:17.320Z,101621.28
2022-11-24T18:02:44.358Z,101631.63
2022-11-24T18:05:11.577Z,101631.84
2022-11-24T18:07:38.631Z,101627.72
2022-11-24T18:10:05.924Z,101624.50
2022-11-24T18:12:33.026Z,101628.16
2022-11-24T18:15:00.054Z,101634.44
2022-11-24T18:17:29.148Z,101638.63
2022-11-24T18:19:56.054Z,101633.50
2022-11-24T18:22:43.020Z,101628.38
2022-11-24T18:25:09.920Z,101633.28
2022-11-24T18:27:36.743Z,101637.34
2022-11-24T18:30:04.677Z,101640.84
2022-11-24T18:32:32.697Z,101647.88
2022-11-24T18:34:59.686Z,101653.56
2022-11-24T18:37:26.486Z,101654.09
2022-11-24T18:39:53.364Z,101664.06
2022-11-24T18:42:20.963Z,101667.25
2022-11-24T18:44:52.606Z,101667.16
2022-11-24T18:47:20.895Z,101671.69
2022-11-24T18:49:47.673Z,101668.22
2022-11-24T18:52:14.581Z,101673.72
2022-11-24T18:54:41.375Z,101673.19
2022-11-24T18:57:08.227Z,101673.22
2022-11-24T18:59:35.193Z,101668.00
2022-11-24T19:02:02.136Z,101665.50
2022-11-24T19:04:28.904Z,101674.06
2022-11-24T19:06:55.635Z,101672.63
2022-11-24T19:09:22.981Z,101674.38
2022-11-24T19:11:49.833Z,101676.81
2022-11-24T19:14:17.964Z,101692.44
2022-11-24T19:16:48.222Z,101685.53
2022-11-24T19:19:17.051Z,101695.34
2022-11-24T19:21:44.218Z,101701.06
2022-11-24T19:24:11.864Z,101702.00
2022-11-24T19:26:39.611Z,101710.69
2022-11-24T19:29:07.681Z,101699.75
2022-11-24T19:31:35.922Z,101701.44
2022-11-24T19:34:03.704Z,101703.72
2022-11-24T19:36:31.098Z,101691.88
2022-11-24T19:38:58.903Z,101701.41
2022-11-24T19:41:28.762Z,101710.88
2022-11-24T19:43:56.535Z,101709.19
2022-11-24T19:46:27.443Z,101709.75
2022-11-24T19:48:57.184Z,101710.41
2022-11-24T19:51:26.473Z,101703.22
2022-11-24T19:53:54.199Z,101712.38
2022-11-24T19:56:22.790Z,101707.16
2022-11-24T19:58:51.145Z,101697.25
2022-11-24T20:01:20.342Z,101693.47
2022-11-24T20:03:53.972Z,101689.72
2022-11-24T20:06:20.922Z,101684.75
2022-11-24T20:08:47.770Z,101685.81
2022-11-24T20:11:17.734Z,101685.25
2022-11-24T20:13:46.451Z,101693.00
2022-11-24T20:16:15.479Z,101696.81
2022-11-24T20:18:45.432Z,101694.88
2022-11-24T20:21:15.166Z,101694.94
2022-11-24T20:23:43.126Z,101699.94
2022-11-24T20:26:20.097Z,101691.91
2022-11-24T20:28:47.733Z,101689.44
2022-11-24T20:31:17.797Z,101683.00
2022-11-24T20:33:47.740Z,101678.50
2022-11-24T20:36:23.950Z,101681.56
2022-11-24T20:38:53.646Z,101684.00
2022-11-24T20:41:24.214Z,101675.13
2022-11-24T20:43:52.573Z,101674.13
2022-11-24T20:46:22.699Z,101669.16
2022-11-24T20:48:49.879Z,101676.16
2022-11-24T20:51:22.185Z,101673.41
2022-11-24T20:53:54.929Z,101680.78
2022-11-24T20:56:24.513Z,101683.09
2022-11-24T20:58:51.733Z,101687.38
2022-11-24T21:01:22.096Z,101694.84
2022-11-24T21:03:56.447Z,101698.69
2022-11-24T21:06:23.725Z,101700.06
2022-11-24T21:08:51.390Z,101702.72
2022-11-24T21:11:19.702Z,101715.66
2022-11-24T21:13:47.691Z,101719.84
2022-11-24T21:16:22.966Z,101723.00
2022-11-24T21:18:52.451Z,101719.03
2022-11-24T21:21:21.315Z,101722.91
2022-11-24T21:23:49.187Z,101716.84
2022-11-24T21:26:17.506Z,101729.72
2022-11-24T21:28:46.850Z,101721.28
2022-11-24T21:31:20.337Z,101729.41
2022-11-24T21:33:50.117Z,101718.47
2022-11-24T21:36:20.550Z,101719.66
2022-11-24T21:38:58.585Z,101727.41
2022-11-24T21:41:28.028Z,101736.06
2022-11-24T21:43:58.764Z,101740.22
2022-11-24T21:46:26.413Z,101733.75
2022-11-24T21:48:54.507Z,101739.44
2022-11-24T21:51:21.816Z,101729.00
2022-11-24T21:53:49.189Z,101729.16
2022-11-24T21:56:19.137Z,101719.97
2022-11-24T21:58:48.651Z,101729.75
2022-11-24T22:01:17.482Z,101732.91
2022-11-24T22:03:45.887Z,101731.88
2022-11-24T22:06:13.344Z,101733.72
2022-11-24T22:08:40.301Z,101731.53
2022-11-24T22:11:20.646Z,101732.97
2022-11-24T22:13:48.987Z,101733.25
2022-11-24T22:16:18.963Z,101742.50
2022-11-24T22:18:46.961Z,101741.03
2022-11-24T22:21:16.806Z,101742.44
2022-11-24T22:23:44.057Z,101740.03
2022-11-24T22:26:17.126Z,101739.88
2022-11-24T22:28:45.089Z,101743.03
2022-11-24T22:31:17.307Z,101737.50
2022-11-24T22:33:44.875Z,101742.31
2022-11-24T22:36:13.873Z,101737.84
2022-11-24T22:38:41.579Z,101740.19
2022-11-24T22:41:13.546Z,101745.34
2022-11-24T22:43:44.651Z,101737.56
2022-11-24T22:46:13.286Z,101742.59
2022-11-24T22:48:40.562Z,101742.66
2022-11-24T22:51:13.031Z,101744.88
2022-11-24T22:53:40.621Z,101758.06
2022-11-24T22:56:11.941Z,101737.19
2022-11-24T22:58:39.916Z,101747.59
2022-11-24T23:01:09.284Z,101751.63
2022-11-24T23:03:37.146Z,101739.31
2022-11-24T23:06:06.567Z,101743.97
2022-11-24T23:08:34.982Z,101737.63
2022-11-24T23:11:04.184Z,101738.63
2022-11-24T23:13:31.551Z,101730.25
2022-11-24T23:16:10.473Z,101734.81
2022-11-24T23:18:38.080Z,101736.03
2022-11-24T23:21:06.268Z,101736.16
2022-11-24T23:23:34.272Z,101736.97
2022-11-24T23:26:02.904Z,101752.81
2022-11-24T23:28:30.169Z,101748.84
2022-11-24T23:31:01.852Z,101751.25
2022-11-24T23:33:28.727Z,101755.81
2022-11-24T23:35:55.635Z,101760.31
2022-11-24T23:38:28.660Z,101771.31
2022-11-24T23:41:01.126Z,101773.19
2022-11-24T23:43:28.367Z,101776.56
2022-11-24T23:45:55.315Z,101776.59
2022-11-24T23:48:22.291Z,101783.25
2022-11-24T23:50:49.093Z,101786.22
2022-11-24T23:53:15.950Z,101782.50
2022-11-24T23:55:43.247Z,101788.22
2022-11-24T23:58:10.048Z,101789.63
